createdAt,value
2019-05-15T00:00:34.744Z,9.50
2019-05-15T00:03:02.005Z,9.40
2019-05-15T00:05:29.240Z,9.40
2019-05-15T00:07:59.317Z,9.30
2019-05-15T00:10:28.785Z,9.30
2019-05-15T00:12:58.155Z,9.70
2019-05-15T00:15:27.927Z,9.20
2019-05-15T00:17:57.903Z,9.20
2019-05-15T00:20:26.314Z,9.50
2019-05-15T00:22:54.611Z,9.10
2019-05-15T00:25:23.640Z,9.10
2019-05-15T00:27:51.610Z,9.00
2019-05-15T00:30:20.321Z,9.40
2019-05-15T00:32:48.994Z,9.00
2019-05-15T00:35:18.485Z,8.90
2019-05-15T00:37:49.296Z,8.90
2019-05-15T00:40:18.304Z,8.80
2019-05-15T00:42:48.870Z,8.80
2019-05-15T00:45:18.492Z,8.80
2019-05-15T00:47:48.708Z,8.80
2019-05-15T00:50:18.250Z,8.70
2019-05-15T00:52:48.538Z,8.70
2019-05-15T00:55:19.151Z,8.70
2019-05-15T00:57:48.514Z,8.60
2019-05-15T01:00:35.063Z,8.60
2019-05-15T01:03:03.238Z,8.50
2019-05-15T01:05:31.810Z,8.40
2019-05-15T01:08:00.095Z,8.40
2019-05-15T01:10:29.068Z,8.40
2019-05-15T01:12:58.397Z,8.40
2019-05-15T01:15:28.900Z,8.40
2019-05-15T01:18:00.715Z,8.30
2019-05-15T01:20:29.094Z,8.30
2019-05-15T01:22:59.174Z,8.30
2019-05-15T01:25:28.050Z,8.50
2019-05-15T01:27:58.239Z,8.50
2019-05-15T01:30:28.516Z,8.10
2019-05-15T01:32:56.367Z,8.20
2019-05-15T01:35:24.313Z,8.00
2019-05-15T01:37:52.403Z,8.10
2019-05-15T01:40:20.362Z,8.00
2019-05-15T01:42:49.982Z,8.00
2019-05-15T01:45:18.911Z,8.00
2019-05-15T01:47:48.001Z,8.50
2019-05-15T01:50:18.418Z,7.90
2019-05-15T01:52:47.947Z,7.90
2019-05-15T01:55:18.189Z,7.80
2019-05-15T01:57:48.603Z,7.80
2019-05-15T02:00:18.807Z,7.80
2019-05-15T02:02:48.161Z,7.70
2019-05-15T02:05:18.801Z,7.70
2019-05-15T02:07:48.062Z,7.70
2019-05-15T02:10:18.663Z,7.60
2019-05-15T02:12:48.124Z,7.60
2019-05-15T02:15:18.981Z,7.60
2019-05-15T02:17:48.098Z,7.50
2019-05-15T02:20:18.627Z,7.50
2019-05-15T02:22:48.482Z,7.30
2019-05-15T02:25:18.514Z,7.40
2019-05-15T02:27:48.019Z,7.40
2019-05-15T02:30:27.881Z,7.30
2019-05-15T02:32:49.861Z,7.60
2019-05-15T02:35:15.238Z,7.30
2019-05-15T02:37:42.263Z,7.10
2019-05-15T02:40:11.027Z,7.20
2019-05-15T02:42:40.491Z,7.20
2019-05-15T02:45:10.263Z,7.50
2019-05-15T02:47:39.583Z,7.10
2019-05-15T02:50:10.643Z,7.00
2019-05-15T02:52:40.717Z,7.00
2019-05-15T02:55:09.528Z,7.00
2019-05-15T02:57:39.469Z,7.00
2019-05-15T03:00:10.803Z,6.90
2019-05-15T03:02:41.318Z,6.90
2019-05-15T03:05:09.648Z,6.90
2019-05-15T03:07:40.411Z,6.90
2019-05-15T03:10:09.624Z,6.90
2019-05-15T03:12:40.905Z,6.90
2019-05-15T03:15:09.681Z,6.80
2019-05-15T03:17:40.458Z,6.80
2019-05-15T03:20:10.356Z,6.80
2019-05-15T03:22:40.243Z,6.80
2019-05-15T03:25:10.616Z,6.70
2019-05-15T03:27:39.899Z,6.70
2019-05-15T03:30:13.172Z,6.70
2019-05-15T03:32:46.702Z,6.70
2019-05-15T03:35:14.492Z,6.70
2019-05-15T03:37:40.102Z,6.60
2019-05-15T03:40:10.309Z,6.60
2019-05-15T03:42:39.598Z,6.60
2019-05-15T03:45:10.225Z,6.60
2019-05-15T03:47:40.210Z,6.60
2019-05-15T03:50:09.253Z,6.50
2019-05-15T03:52:39.491Z,6.50
2019-05-15T03:55:10.924Z,6.50
2019-05-15T03:57:39.985Z,6.50
2019-05-15T04:00:09.622Z,6.50
2019-05-15T04:02:39.517Z,6.50
2019-05-15T04:05:11.937Z,6.40
2019-05-15T04:07:39.963Z,6.40
2019-05-15T04:10:10.151Z,6.70
2019-05-15T04:12:40.829Z,6.40
2019-05-15T04:15:10.211Z,6.40
2019-05-15T04:17:40.134Z,6.40
2019-05-15T04:20:09.986Z,6.40
2019-05-15T04:22:40.016Z,6.30
2019-05-15T04:25:10.147Z,6.40
2019-05-15T04:27:41.341Z,6.40
2019-05-15T04:30:10.873Z,6.70
2019-05-15T04:32:40.086Z,6.40
2019-05-15T04:35:09.386Z,6.40
2019-05-15T04:37:40.621Z,6.40
2019-05-15T04:40:09.460Z,6.30
2019-05-15T04:42:39.848Z,6.30
2019-05-15T04:45:10.035Z,6.40
2019-05-15T04:47:39.859Z,6.40
2019-05-15T04:50:09.237Z,6.40
2019-05-15T04:52:43.262Z,6.20
2019-05-15T04:55:10.294Z,6.40
2019-05-15T04:57:40.170Z,6.40
2019-05-15T05:00:09.924Z,6.40
2019-05-15T05:02:40.187Z,6.70
2019-05-15T05:05:10.127Z,6.60
2019-05-15T05:07:39.235Z,6.70
2019-05-15T05:10:09.654Z,6.70
2019-05-15T05:12:41.673Z,6.80
2019-05-15T05:15:08.628Z,6.80
2019-05-15T05:17:39.294Z,7.20
2019-05-15T05:20:08.047Z,7.00
2019-05-15T05:22:38.921Z,7.00
2019-05-15T05:25:08.040Z,7.10
2019-05-15T05:27:38.326Z,7.10
2019-05-15T05:30:08.446Z,7.20
2019-05-15T05:32:38.846Z,7.40
2019-05-15T05:35:08.455Z,7.50
2019-05-15T05:37:38.910Z,7.60
2019-05-15T05:40:08.214Z,7.60
2019-05-15T05:42:38.850Z,7.80
2019-05-15T05:45:09.222Z,7.90
2019-05-15T05:47:38.314Z,7.90
2019-05-15T05:50:07.994Z,8.00
2019-05-15T05:52:38.738Z,8.00
2019-05-15T05:55:08.864Z,8.20
2019-05-15T05:57:38.247Z,8.30
2019-05-15T06:00:08.948Z,8.40
2019-05-15T06:02:47.412Z,8.70
2019-05-15T06:05:07.902Z,8.90
2019-05-15T06:07:38.414Z,9.00
2019-05-15T06:10:08.628Z,9.10
2019-05-15T06:12:38.971Z,9.20
2019-05-15T06:15:08.916Z,9.20
2019-05-15T06:17:38.764Z,9.30
2019-05-15T06:20:07.944Z,9.40
2019-05-15T06:22:34.479Z,9.40
2019-05-15T06:25:04.878Z,9.80
2019-05-15T06:27:31.505Z,9.60
2019-05-15T06:29:58.643Z,10.10
2019-05-15T06:32:28.881Z,10.00
2019-05-15T06:34:57.814Z,10.10
2019-05-15T06:37:28.522Z,10.20
2019-05-15T06:39:55.983Z,10.10
2019-05-15T06:42:24.149Z,10.50
2019-05-15T06:44:52.073Z,10.60
2019-05-15T06:47:20.146Z,10.60
2019-05-15T06:49:48.749Z,10.90
2019-05-15T06:52:18.122Z,10.70
2019-05-15T06:54:48.377Z,10.80
2019-05-15T06:57:18.393Z,11.00
2019-05-15T06:59:48.282Z,11.00
2019-05-15T07:02:18.681Z,11.20
2019-05-15T07:04:48.671Z,11.20
2019-05-15T07:07:18.051Z,11.30
2019-05-15T07:09:44.713Z,11.50
2019-05-15T07:12:11.863Z,11.80
2019-05-15T07:14:39.918Z,11.70
2019-05-15T07:17:09.056Z,12.00
2019-05-15T07:19:39.251Z,11.80
2019-05-15T07:22:09.333Z,12.30
2019-05-15T07:24:38.317Z,12.00
2019-05-15T07:27:07.976Z,12.30
2019-05-15T07:29:38.377Z,12.50
2019-05-15T07:32:08.020Z,13.00
2019-05-15T07:34:37.871Z,13.90
2019-05-15T07:37:09.460Z,15.20
2019-05-15T07:39:38.155Z,16.70
2019-05-15T07:42:08.433Z,18.70
2019-05-15T07:44:38.615Z,20.20
2019-05-15T07:47:06.225Z,21.30
2019-05-15T07:49:34.306Z,22.40
2019-05-15T07:52:02.947Z,23.40
2019-05-15T07:54:32.257Z,24.00
2019-05-15T07:57:02.360Z,24.90
2019-05-15T07:59:30.484Z,25.10
2019-05-15T08:01:58.921Z,25.10
2019-05-15T08:04:30.711Z,25.90
2019-05-15T08:06:59.119Z,26.60
2019-05-15T08:09:28.442Z,26.80
2019-05-15T08:11:58.956Z,26.60
2019-05-15T08:14:28.890Z,27.40
2019-05-15T08:16:58.925Z,27.70
2019-05-15T08:19:25.509Z,27.90
2019-05-15T08:21:52.568Z,27.30
2019-05-15T08:24:20.519Z,26.80
2019-05-15T08:26:48.798Z,25.60
2019-05-15T08:29:21.467Z,24.00
2019-05-15T08:31:48.300Z,22.00
2019-05-15T08:34:19.394Z,20.40
2019-05-15T08:36:48.289Z,18.60
2019-05-15T08:39:18.859Z,17.50
2019-05-15T08:41:48.416Z,16.80
2019-05-15T08:44:18.616Z,16.50
2019-05-15T08:46:48.016Z,15.60
2019-05-15T08:49:16.345Z,15.40
2019-05-15T08:51:48.472Z,15.00
2019-05-15T08:54:15.272Z,14.80
2019-05-15T08:56:42.266Z,14.90
2019-05-15T08:59:09.666Z,14.50
2019-05-15T09:01:38.326Z,14.50
2019-05-15T09:04:08.880Z,14.30
2019-05-15T09:06:41.188Z,14.50
2019-05-15T09:09:09.635Z,14.20
2019-05-15T09:11:39.081Z,14.50
2019-05-15T09:14:08.260Z,14.20
2019-05-15T09:16:38.744Z,14.50
2019-05-15T09:19:08.342Z,14.60
2019-05-15T09:21:38.716Z,14.40
2019-05-15T09:24:09.371Z,14.40
2019-05-15T09:26:40.142Z,14.40
2019-05-15T09:29:09.319Z,14.50
2019-05-15T09:31:39.003Z,14.60
2019-05-15T09:34:08.916Z,14.80
2019-05-15T09:36:35.631Z,14.90
2019-05-15T09:39:05.599Z,15.30
2019-05-15T09:41:32.662Z,15.30
2019-05-15T09:44:00.935Z,15.00
2019-05-15T09:46:29.325Z,15.00
2019-05-15T09:48:59.266Z,15.10
2019-05-15T09:51:29.037Z,15.30
2019-05-15T09:53:59.392Z,15.20
2019-05-15T09:56:29.057Z,15.10
2019-05-15T09:58:58.191Z,15.10
2019-05-15T10:01:28.549Z,15.10
2019-05-15T10:03:56.805Z,15.30
2019-05-15T10:06:25.040Z,15.30
2019-05-15T10:08:53.096Z,15.70
2019-05-15T10:11:21.060Z,15.30
2019-05-15T10:13:49.211Z,15.70
2019-05-15T10:16:19.797Z,15.50
2019-05-15T10:18:50.981Z,15.60
2019-05-15T10:21:18.633Z,15.70
2019-05-15T10:23:49.080Z,15.90
2019-05-15T10:26:19.274Z,15.80
2019-05-15T10:28:49.250Z,15.70
2019-05-15T10:31:19.517Z,15.90
2019-05-15T10:33:48.960Z,16.10
2019-05-15T10:36:18.932Z,16.20
2019-05-15T10:38:48.863Z,16.20
2019-05-15T10:41:18.784Z,16.20
2019-05-15T10:43:55.559Z,16.10
2019-05-15T10:46:19.034Z,16.20
2019-05-15T10:48:49.300Z,16.20
2019-05-15T10:51:19.475Z,16.30
2019-05-15T10:53:48.768Z,16.50
2019-05-15T10:56:18.529Z,16.30
2019-05-15T10:58:50.138Z,16.50
2019-05-15T11:01:18.953Z,16.40
2019-05-15T11:03:45.917Z,16.70
2019-05-15T11:06:13.150Z,16.80
2019-05-15T11:08:41.313Z,16.60
2019-05-15T11:11:09.604Z,16.70
2019-05-15T11:13:38.225Z,16.80
2019-05-15T11:16:06.700Z,17.30
2019-05-15T11:18:35.390Z,16.90
2019-05-15T11:21:03.647Z,17.10
2019-05-15T11:23:32.501Z,17.20
2019-05-15T11:26:00.531Z,17.10
2019-05-15T11:28:32.128Z,17.30
2019-05-15T11:30:59.581Z,17.20
2019-05-15T11:33:29.218Z,17.20
2019-05-15T11:36:04.440Z,17.30
2019-05-15T11:38:28.890Z,17.20
2019-05-15T11:40:57.648Z,17.30
2019-05-15T11:43:25.700Z,17.30
2019-05-15T11:45:54.179Z,17.20
2019-05-15T11:48:22.235Z,17.30
2019-05-15T11:50:50.389Z,17.30
2019-05-15T11:53:19.169Z,17.50
2019-05-15T11:56:01.945Z,17.30
2019-05-15T11:58:29.099Z,17.30
2019-05-15T12:00:57.966Z,17.20
2019-05-15T12:03:25.331Z,17.20
2019-05-15T12:05:52.382Z,17.60
2019-05-15T12:08:19.339Z,17.50
2019-05-15T12:10:46.412Z,17.30
2019-05-15T12:13:13.555Z,17.80
2019-05-15T12:15:40.616Z,17.40
2019-05-15T12:18:09.444Z,17.60
2019-05-15T12:20:38.932Z,17.50
2019-05-15T12:23:09.105Z,17.50
2019-05-15T12:25:39.601Z,17.40
2019-05-15T12:28:09.670Z,17.60
2019-05-15T12:30:40.265Z,17.30
2019-05-15T12:33:09.327Z,17.30
2019-05-15T12:35:39.799Z,17.40
2019-05-15T12:38:10.032Z,17.40
2019-05-15T13:00:38.159Z,17.80
2019-05-15T13:03:05.221Z,17.90
2019-05-15T13:05:32.671Z,18.00
2019-05-15T13:08:01.080Z,18.00
2019-05-15T13:10:29.825Z,18.10
2019-05-15T13:13:04.927Z,18.20
2019-05-15T13:15:28.193Z,18.20
2019-05-15T13:17:59.682Z,18.10
2019-05-15T13:20:28.843Z,18.20
2019-05-15T13:22:59.247Z,18.10
2019-05-15T13:25:28.040Z,17.90
2019-05-15T13:27:58.068Z,17.80
2019-05-15T13:30:26.514Z,17.80
2019-05-15T13:32:55.213Z,17.80
2019-05-15T13:35:23.251Z,17.60
2019-05-15T13:37:52.182Z,17.90
2019-05-15T13:40:34.083Z,17.50
2019-05-15T13:42:51.874Z,17.50
2019-05-15T13:45:20.548Z,18.00
2019-05-15T13:47:49.075Z,17.40
2019-05-15T13:50:19.471Z,17.50
2019-05-15T13:52:48.185Z,17.80
2019-05-15T13:55:24.728Z,18.00
2019-05-15T13:57:48.634Z,18.00
2019-05-15T14:00:18.446Z,18.00
2019-05-15T14:02:47.955Z,18.10
2019-05-15T14:05:16.356Z,18.00
2019-05-15T14:07:49.276Z,18.30
2019-05-15T14:10:14.794Z,18.20
2019-05-15T14:12:42.947Z,18.30
2019-05-15T14:15:11.665Z,18.70
2019-05-15T14:17:40.174Z,18.30
2019-05-15T14:20:09.306Z,18.20
2019-05-15T14:22:38.962Z,18.20
2019-05-15T14:25:08.853Z,18.40
2019-05-15T14:27:39.901Z,18.20
2019-05-15T14:30:09.639Z,18.40
2019-05-15T14:32:39.326Z,18.50
2019-05-15T14:35:09.239Z,18.20
2019-05-15T14:37:37.764Z,18.30
2019-05-15T14:40:09.104Z,18.40
2019-05-15T14:42:39.435Z,18.10
2019-05-15T14:45:09.037Z,18.30
2019-05-15T14:47:38.694Z,18.10
2019-05-15T14:50:10.198Z,18.20
2019-05-15T14:52:38.607Z,18.00
2019-05-15T14:55:07.480Z,18.20
2019-05-15T14:57:38.873Z,18.40
2019-05-15T15:00:05.736Z,17.90
2019-05-15T15:02:32.942Z,17.90
2019-05-15T15:05:01.319Z,18.00
2019-05-15T15:07:29.362Z,18.00
2019-05-15T15:09:58.249Z,17.90
2019-05-15T15:12:28.331Z,17.90
2019-05-15T15:14:56.890Z,18.10
2019-05-15T15:17:25.051Z,18.00
2019-05-15T15:19:53.800Z,17.90
2019-05-15T15:22:22.376Z,17.90
2019-05-15T15:24:50.656Z,17.80
2019-05-15T15:27:19.314Z,18.10
2019-05-15T15:29:48.325Z,17.90
2019-05-15T15:32:16.529Z,18.00
2019-05-15T15:34:44.746Z,17.90
2019-05-15T15:37:13.118Z,17.90
2019-05-15T15:39:41.511Z,17.80
2019-05-15T15:42:10.277Z,17.80
2019-05-15T15:44:38.710Z,17.90
2019-05-15T15:47:08.590Z,17.80
2019-05-15T15:49:38.763Z,17.50
2019-05-15T15:52:08.762Z,17.50
2019-05-15T15:54:39.519Z,17.30
2019-05-15T15:57:08.554Z,17.30
2019-05-15T15:59:38.590Z,17.20
2019-05-15T16:02:08.903Z,17.20
2019-05-15T16:04:39.790Z,17.20
2019-05-15T16:07:09.560Z,17.30
2019-05-15T16:09:38.852Z,17.50
2019-05-15T16:12:09.646Z,17.60
2019-05-15T16:14:38.217Z,17.70
2019-05-15T16:17:08.643Z,17.70
2019-05-15T16:19:38.926Z,17.70
2019-05-15T16:22:08.779Z,17.50
2019-05-15T16:24:38.635Z,17.50
2019-05-15T16:27:09.634Z,17.40
2019-05-15T16:29:39.292Z,17.30
2019-05-15T16:32:08.698Z,16.90
2019-05-15T16:34:39.290Z,17.10
2019-05-15T16:37:08.918Z,17.20
2019-05-15T16:39:38.192Z,17.10
2019-05-15T16:42:07.166Z,17.10
2019-05-15T16:44:38.435Z,17.20
2019-05-15T16:47:05.332Z,17.30
2019-05-15T16:49:32.544Z,17.30
2019-05-15T16:51:59.727Z,17.50
2019-05-15T16:54:28.847Z,17.20
2019-05-15T16:56:59.534Z,17.20
2019-05-15T16:59:28.865Z,17.10
2019-05-15T17:01:57.807Z,17.10
2019-05-15T17:04:28.634Z,17.00
2019-05-15T17:06:58.132Z,16.90
2019-05-15T17:09:24.807Z,16.90
2019-05-15T17:11:52.726Z,16.90
2019-05-15T17:14:20.155Z,16.60
2019-05-15T17:16:48.184Z,17.10
2019-05-15T17:19:18.031Z,17.00
2019-05-15T17:21:48.225Z,16.80
2019-05-15T17:24:16.330Z,16.90
2019-05-15T17:26:44.708Z,16.90
2019-05-15T17:29:13.394Z,16.80
2019-05-15T17:31:42.514Z,16.90
2019-05-15T17:34:10.915Z,17.30
2019-05-15T17:36:39.732Z,16.70
2019-05-15T17:39:08.837Z,16.70
2019-05-15T17:41:39.061Z,16.70
2019-05-15T17:44:08.187Z,16.70
2019-05-15T17:46:38.502Z,16.70
2019-05-15T17:49:14.334Z,16.70
2019-05-15T17:51:38.391Z,16.70
2019-05-15T17:54:08.868Z,16.70
2019-05-15T17:56:39.266Z,16.60
2019-05-15T17:59:08.633Z,16.60
2019-05-15T18:01:38.326Z,16.50
2019-05-15T18:04:08.405Z,16.80
2019-05-15T18:06:39.857Z,16.50
2019-05-15T18:09:08.673Z,16.40
2019-05-15T18:11:38.382Z,16.20
2019-05-15T18:14:08.745Z,16.20
2019-05-15T18:16:38.184Z,16.10
2019-05-15T18:19:08.324Z,16.00
2019-05-15T18:21:38.341Z,16.00
2019-05-15T18:24:09.285Z,16.20
2019-05-15T18:26:38.681Z,15.90
2019-05-15T18:29:09.050Z,15.80
2019-05-15T18:31:38.133Z,15.80
2019-05-15T18:34:08.237Z,15.90
2019-05-15T18:36:38.991Z,15.80
2019-05-15T18:39:08.386Z,15.80
2019-05-15T18:41:37.888Z,15.80
2019-05-15T18:44:06.441Z,15.80
2019-05-15T18:46:35.195Z,15.70
2019-05-15T18:49:03.895Z,15.80
2019-05-15T18:51:32.346Z,15.80
2019-05-15T18:54:01.057Z,15.70
2019-05-15T18:56:29.697Z,15.40
2019-05-15T18:58:58.558Z,15.50
2019-05-15T19:01:28.473Z,15.60
2019-05-15T19:03:58.247Z,15.50
2019-05-15T19:06:28.994Z,15.40
2019-05-15T19:08:57.015Z,15.40
2019-05-15T19:11:25.003Z,15.40
2019-05-15T19:13:53.211Z,15.30
2019-05-15T19:16:21.658Z,15.20
2019-05-15T19:18:50.539Z,15.20
2019-05-15T19:21:18.074Z,15.10
2019-05-15T19:23:47.799Z,15.40
2019-05-15T19:26:18.189Z,15.00
2019-05-15T19:28:48.668Z,14.90
2019-05-15T19:31:25.963Z,15.00
2019-05-15T19:33:47.055Z,15.00
2019-05-15T19:36:15.462Z,15.10
2019-05-15T19:38:44.128Z,14.90
2019-05-15T19:41:12.542Z,14.90
2019-05-15T19:43:40.997Z,14.80
2019-05-15T19:46:09.421Z,14.70
2019-05-15T19:48:38.611Z,14.70
2019-05-15T19:51:08.976Z,14.70
2019-05-15T19:53:38.450Z,14.80
2019-05-15T19:56:08.457Z,14.50
2019-05-15T19:58:37.403Z,14.40
2019-05-15T20:01:08.066Z,14.40
2019-05-15T20:03:47.329Z,14.50
2019-05-15T20:06:05.210Z,14.30
2019-05-15T20:08:32.687Z,14.20
2019-05-15T20:11:01.267Z,14.20
2019-05-15T20:13:29.655Z,14.20
2019-05-15T20:15:58.166Z,14.10
2019-05-15T20:18:27.848Z,14.10
2019-05-15T20:20:58.560Z,14.00
2019-05-15T20:23:28.851Z,13.90
2019-05-15T20:25:57.789Z,13.90
2019-05-15T20:28:28.654Z,13.90
2019-05-15T20:30:58.735Z,13.80
2019-05-15T20:33:28.630Z,13.30
2019-05-15T20:35:58.712Z,13.70
2019-05-15T20:38:28.729Z,13.50
2019-05-15T20:40:59.708Z,13.40
2019-05-15T20:43:28.297Z,13.40
2019-05-15T20:45:57.724Z,13.40
2019-05-15T20:48:26.079Z,13.50
2019-05-15T20:50:54.854Z,13.40
2019-05-15T20:53:23.691Z,13.40
2019-05-15T20:55:52.033Z,13.30
2019-05-15T20:58:20.720Z,13.30
2019-05-15T21:00:49.637Z,13.40
2019-05-15T21:03:18.177Z,13.20
2019-05-15T21:05:48.686Z,13.50
2019-05-15T21:08:18.241Z,13.20
2019-05-15T21:10:49.136Z,13.20
2019-05-15T21:13:18.206Z,13.10
2019-05-15T21:15:45.296Z,13.10
2019-05-15T21:18:15.148Z,13.00
2019-05-15T21:20:44.122Z,13.00
2019-05-15T21:23:12.542Z,13.00
2019-05-15T21:25:40.858Z,13.00
2019-05-15T21:28:09.472Z,13.00
2019-05-15T21:30:37.914Z,13.00
2019-05-15T21:33:08.699Z,13.00
2019-05-15T21:35:38.537Z,12.90
2019-05-15T21:38:09.343Z,12.90
2019-05-15T21:40:38.455Z,12.80
2019-05-15T21:43:05.226Z,12.80
2019-05-15T21:45:32.322Z,12.70
2019-05-15T21:48:00.818Z,12.80
2019-05-15T21:50:29.111Z,12.70
2019-05-15T21:52:58.259Z,12.70
2019-05-15T21:55:28.734Z,12.60
2019-05-15T21:57:57.734Z,12.50
2019-05-15T22:00:34.328Z,12.50
2019-05-15T22:03:01.619Z,12.50
2019-05-15T22:05:30.088Z,12.50
2019-05-15T22:07:58.907Z,12.40
2019-05-15T22:10:28.805Z,12.40
2019-05-15T22:12:58.956Z,12.30
2019-05-15T22:15:28.564Z,12.20
2019-05-15T22:17:57.262Z,12.20
2019-05-15T22:20:25.609Z,12.20
2019-05-15T22:22:54.007Z,12.40
2019-05-15T22:25:22.257Z,12.10
2019-05-15T22:27:50.752Z,12.00
2019-05-15T22:30:19.529Z,12.00
2019-05-15T22:32:49.397Z,12.10
2019-05-15T22:35:18.759Z,12.00
2019-05-15T22:37:49.403Z,11.90
2019-05-15T22:40:18.350Z,11.90
2019-05-15T22:42:48.649Z,11.90
2019-05-15T22:45:18.359Z,11.80
2019-05-15T22:47:48.139Z,12.00
2019-05-15T22:50:18.847Z,11.80
2019-05-15T22:52:49.399Z,11.80
2019-05-15T22:55:18.220Z,11.80
2019-05-15T22:57:48.030Z,11.70
2019-05-15T23:00:17.161Z,11.60
2019-05-15T23:02:45.739Z,11.60
2019-05-15T23:05:25.116Z,11.50
2019-05-15T23:07:44.503Z,11.50
2019-05-15T23:10:18.188Z,11.50
2019-05-15T23:12:45.551Z,11.50
2019-05-15T23:15:13.367Z,11.50
2019-05-15T23:17:40.727Z,11.40
2019-05-15T23:20:09.079Z,11.40
2019-05-15T23:22:38.907Z,11.30
2019-05-15T23:25:07.698Z,11.30
2019-05-15T23:27:38.271Z,11.30
2019-05-15T23:30:09.011Z,11.30
2019-05-15T23:32:39.146Z,11.20
2019-05-15T23:35:06.439Z,11.20
2019-05-15T23:37:34.400Z,11.20
2019-05-15T23:40:01.542Z,11.50
2019-05-15T23:42:29.399Z,11.10
2019-05-15T23:44:57.778Z,11.40
2019-05-15T23:47:28.479Z,11.10
2019-05-15T23:49:57.837Z,11.30
2019-05-15T23:52:25.131Z,11.10
2019-05-15T23:54:52.445Z,11.50
2019-05-15T23:57:19.746Z,11.10
2019-05-15T23:59:48.179Z,11.00
